createdAt,value
2022-08-07T00:00:14.787Z,14.39
2022-08-07T00:02:36.255Z,14.38
2022-08-07T00:04:45.280Z,14.37
2022-08-07T00:06:51.601Z,14.35
2022-08-07T00:08:54.327Z,14.32
2022-08-07T00:10:58.375Z,14.32
2022-08-07T00:13:09.741Z,14.30
2022-08-07T00:15:25.853Z,14.17
2022-08-07T00:17:40.560Z,14.02
2022-08-07T00:20:00.380Z,13.89
2022-08-07T00:22:05.187Z,13.86
2022-08-07T00:24:07.884Z,13.82
2022-08-07T00:26:18.792Z,13.79
2022-08-07T00:28:33.900Z,13.76
2022-08-07T00:30:36.453Z,13.77
2022-08-07T00:32:38.470Z,13.74
2022-08-07T00:34:41.415Z,13.68
2022-08-07T00:36:43.959Z,13.68
2022-08-07T00:38:45.953Z,13.67
2022-08-07T00:40:48.007Z,13.63
2022-08-07T00:42:50.280Z,13.57
2022-08-07T00:44:54.715Z,13.61
2022-08-07T00:46:56.714Z,13.49
2022-08-07T00:49:01.893Z,13.41
2022-08-07T00:51:04.322Z,13.39
2022-08-07T00:53:06.478Z,13.34
2022-08-07T00:55:11.408Z,13.33
2022-08-07T00:57:19.560Z,13.31
2022-08-07T00:59:35.304Z,13.32
2022-08-07T01:01:41.571Z,13.31
2022-08-07T01:03:56.981Z,13.27
2022-08-07T01:06:03.201Z,13.24
2022-08-07T01:08:06.117Z,13.20
2022-08-07T01:10:12.615Z,13.09
2022-08-07T01:12:29.290Z,13.03
2022-08-07T01:14:33.160Z,13.05
2022-08-07T01:16:43.129Z,13.06
2022-08-07T01:18:48.906Z,13.03
2022-08-07T01:21:17.509Z,13.02
2022-08-07T01:23:34.734Z,12.97
2022-08-07T01:25:55.845Z,12.97
2022-08-07T01:27:58.483Z,12.84
2022-08-07T01:30:01.849Z,12.87
2022-08-07T01:32:05.522Z,12.67
2022-08-07T01:34:14.434Z,12.59
2022-08-07T01:36:16.786Z,12.51
2022-08-07T01:38:25.679Z,12.48
2022-08-07T01:40:28.064Z,12.54
2022-08-07T01:42:37.586Z,12.57
2022-08-07T01:44:42.489Z,12.38
2022-08-07T01:46:51.394Z,12.40
2022-08-07T01:48:53.404Z,12.39
2022-08-07T01:51:08.253Z,12.33
2022-08-07T01:54:09.478Z,12.27
2022-08-07T01:55:56.590Z,12.19
2022-08-07T01:58:06.096Z,12.21
2022-08-07T02:00:28.654Z,12.15
2022-08-07T02:03:12.286Z,12.27
2022-08-07T02:05:16.147Z,12.11
2022-08-07T02:07:50.153Z,12.03
2022-08-07T02:09:58.606Z,11.96
2022-08-07T02:12:17.627Z,12.06
2022-08-07T02:14:40.595Z,12.01
2022-08-07T02:16:42.001Z,12.02
2022-08-07T02:18:45.298Z,12.05
2022-08-07T02:20:52.103Z,12.07
2022-08-07T02:23:03.637Z,12.04
2022-08-07T02:25:13.866Z,11.97
2022-08-07T02:27:21.355Z,11.88
2022-08-07T02:29:24.798Z,11.85
2022-08-07T02:31:29.427Z,11.80
2022-08-07T02:33:33.015Z,11.80
2022-08-07T02:36:30.176Z,11.85
2022-08-07T02:38:16.440Z,11.85
2022-08-07T02:40:35.116Z,11.81
2022-08-07T02:42:37.534Z,11.70
2022-08-07T02:44:42.262Z,11.71
2022-08-07T02:46:52.692Z,11.60
2022-08-07T02:48:55.382Z,11.62
2022-08-07T02:50:57.508Z,11.58
2022-08-07T02:53:07.521Z,11.62
2022-08-07T02:55:28.413Z,11.49
2022-08-07T02:57:42.481Z,11.54
2022-08-07T02:59:55.258Z,11.53
2022-08-07T03:02:03.619Z,11.53
2022-08-07T03:04:07.707Z,11.53
2022-08-07T03:06:16.507Z,11.37
2022-08-07T03:08:29.557Z,11.39
2022-08-07T03:10:32.108Z,11.19
2022-08-07T03:12:34.366Z,11.19
2022-08-07T03:14:36.826Z,11.23
2022-08-07T03:16:38.954Z,11.20
2022-08-07T03:18:44.148Z,11.13
2022-08-07T03:20:46.282Z,11.16
2022-08-07T03:22:50.176Z,11.13
2022-08-07T03:24:52.526Z,11.11
2022-08-07T03:26:58.806Z,11.14
2022-08-07T03:29:02.464Z,11.14
2022-08-07T06:06:09.394Z,14.79
2022-08-07T06:08:29.444Z,14.91
2022-08-07T06:10:33.003Z,15.08
2022-08-07T06:12:35.008Z,15.19
2022-08-07T06:14:37.022Z,15.22
2022-08-07T06:16:39.063Z,15.24
2022-08-07T06:18:41.251Z,15.37
2022-08-07T06:20:50.586Z,15.46
2022-08-07T06:23:25.105Z,15.59
2022-08-07T06:25:34.760Z,15.67
2022-08-07T06:27:59.580Z,15.73
2022-08-07T06:30:01.047Z,15.72
2022-08-07T06:32:03.220Z,15.76
2022-08-07T06:34:06.765Z,15.88
2022-08-07T06:36:13.833Z,16.08
2022-08-07T06:38:20.417Z,16.19
2022-08-07T06:40:22.856Z,16.30
2022-08-07T06:42:37.479Z,16.27
2022-08-07T06:44:39.909Z,16.37
2022-08-07T06:46:41.945Z,16.27
2022-08-07T06:48:45.997Z,16.39
2022-08-07T06:50:48.123Z,16.46
2022-08-07T06:52:53.703Z,16.55
2022-08-07T06:55:32.990Z,16.71
2022-08-07T06:57:19.887Z,16.70
2022-08-07T07:00:13.923Z,16.69
2022-08-07T07:02:06.206Z,16.73
2022-08-07T07:04:28.636Z,16.90
2022-08-07T07:06:32.165Z,17.16
2022-08-07T07:08:47.032Z,17.32
2022-08-07T07:10:56.700Z,17.48
2022-08-07T07:13:14.704Z,17.63
2022-08-07T07:15:35.853Z,17.77
2022-08-07T07:17:56.755Z,17.74
2022-08-07T07:20:01.003Z,17.81
2022-08-07T07:22:33.943Z,17.82
2022-08-07T07:24:27.326Z,17.90
2022-08-07T07:26:34.801Z,17.91
2022-08-07T07:29:56.492Z,17.88
2022-08-07T07:31:23.794Z,17.87
2022-08-07T07:33:26.653Z,17.99
2022-08-07T07:35:33.533Z,18.07
2022-08-07T07:37:49.793Z,18.21
2022-08-07T07:39:56.468Z,18.25
2022-08-07T07:42:13.668Z,18.38
2022-08-07T07:44:25.882Z,18.58
2022-08-07T07:46:53.589Z,18.74
2022-08-07T07:49:00.214Z,18.89
2022-08-07T07:51:11.061Z,19.00
2022-08-07T07:53:23.093Z,19.05
2022-08-07T07:55:27.699Z,19.18
2022-08-07T07:57:51.455Z,19.32
2022-08-07T07:59:55.935Z,19.46
2022-08-07T08:02:02.855Z,19.58
2022-08-07T08:04:10.254Z,19.68
2022-08-07T08:06:13.809Z,19.84
2022-08-07T08:08:35.185Z,19.92
2022-08-07T08:10:39.033Z,19.97
2022-08-07T08:12:52.261Z,20.00
2022-08-07T08:14:54.942Z,20.06
2022-08-07T08:16:57.839Z,20.12
2022-08-07T08:20:16.245Z,20.07
2022-08-07T08:22:07.854Z,20.07
2022-08-07T08:24:36.075Z,20.30
2022-08-07T08:26:58.071Z,20.54
2022-08-07T08:29:02.254Z,20.50
2022-08-07T08:31:06.563Z,20.61
2022-08-07T08:33:15.053Z,20.78
2022-08-07T08:35:22.059Z,21.02
2022-08-07T08:37:59.254Z,21.10
2022-08-07T08:39:55.211Z,21.15
2022-08-07T08:42:09.262Z,21.20
2022-08-07T08:44:44.684Z,21.25
2022-08-07T08:47:09.897Z,21.28
2022-08-07T08:50:02.565Z,21.36
2022-08-07T08:52:32.218Z,21.40
2022-08-07T08:55:07.788Z,21.35
2022-08-07T08:57:25.562Z,21.33
2022-08-07T08:59:53.613Z,21.46
2022-08-07T09:02:34.817Z,21.42
2022-08-07T09:05:03.988Z,21.49
2022-08-07T09:07:45.907Z,21.90
2022-08-07T09:10:10.662Z,21.65
2022-08-07T09:12:41.390Z,21.86
2022-08-07T09:16:25.455Z,21.98
2022-08-07T09:18:16.871Z,21.95
2022-08-07T09:21:02.683Z,21.99
2022-08-07T09:24:30.449Z,21.88
2022-08-07T09:25:53.428Z,22.17
2022-08-07T09:30:01.528Z,22.29
2022-08-07T09:31:03.619Z,22.82
2022-08-07T09:33:52.701Z,23.42
2022-08-07T09:36:06.347Z,23.56
2022-08-07T09:38:14.167Z,23.74
2022-08-07T09:40:30.650Z,23.86
2022-08-07T09:42:51.459Z,23.88
2022-08-07T09:47:25.584Z,23.70
2022-08-07T09:48:03.997Z,23.68
2022-08-07T09:50:26.592Z,23.67
2022-08-07T09:52:56.232Z,23.41
2022-08-07T09:56:03.326Z,22.93
2022-08-07T09:58:42.551Z,22.55
2022-08-07T10:01:51.131Z,22.43
2022-08-07T10:04:33.022Z,22.62
2022-08-07T10:06:59.890Z,22.77
2022-08-07T10:09:42.768Z,22.95
2022-08-07T10:12:21.937Z,23.21
2022-08-07T10:14:40.312Z,23.80
2022-08-07T10:17:20.893Z,24.04
2022-08-07T10:19:49.421Z,23.77
2022-08-07T10:23:01.447Z,23.88
2022-08-07T10:25:43.731Z,23.71
2022-08-07T10:28:12.621Z,24.08
2022-08-07T10:30:59.427Z,24.03
2022-08-07T10:34:05.785Z,24.07
2022-08-07T10:36:29.673Z,24.16
2022-08-07T10:39:08.475Z,23.71
2022-08-07T10:41:52.368Z,23.85
2022-08-07T10:44:33.722Z,23.90
2022-08-07T10:46:50.704Z,23.85
2022-08-07T10:49:14.814Z,23.96
2022-08-07T10:51:39.583Z,23.90
2022-08-07T10:54:19.708Z,23.74
2022-08-07T10:56:54.983Z,23.71
2022-08-07T10:59:30.394Z,23.58
2022-08-07T11:01:51.526Z,23.66
2022-08-07T11:05:10.138Z,23.64
2022-08-07T11:07:59.064Z,23.62
2022-08-07T11:10:07.341Z,23.66
2022-08-07T11:13:02.117Z,23.72
2022-08-07T11:15:18.089Z,23.77
2022-08-07T11:17:45.827Z,23.76
2022-08-07T11:19:57.927Z,23.82
2022-08-07T11:22:19.181Z,23.91
2022-08-07T11:24:56.787Z,23.90
2022-08-07T11:27:17.735Z,23.93
2022-08-07T11:29:49.120Z,24.02
2022-08-07T11:32:40.684Z,24.14
2022-08-07T11:34:57.384Z,24.07
2022-08-07T11:37:57.262Z,23.96
2022-08-07T11:40:19.240Z,24.11
2022-08-07T11:42:52.672Z,24.28
2022-08-07T11:45:57.800Z,24.50
2022-08-07T11:49:27.454Z,24.61
2022-08-07T11:51:52.896Z,24.72
2022-08-07T11:54:29.661Z,24.81
2022-08-07T11:57:00.709Z,25.04
2022-08-07T12:00:11.499Z,25.26
2022-08-07T12:02:31.988Z,25.44
2022-08-07T12:04:59.523Z,25.33
2022-08-07T12:07:18.972Z,25.31
2022-08-07T12:09:42.449Z,25.48
2022-08-07T12:12:10.248Z,25.81
2022-08-07T12:14:22.295Z,26.19
2022-08-07T12:16:36.736Z,26.52
2022-08-07T12:18:50.730Z,26.85
2022-08-07T12:21:55.758Z,27.12
2022-08-07T12:24:37.497Z,27.78
2022-08-07T12:26:40.644Z,27.56
2022-08-07T12:28:59.289Z,27.87
2022-08-07T12:31:09.379Z,27.92
2022-08-07T12:33:28.148Z,27.40
2022-08-07T12:35:36.326Z,27.27
2022-08-07T12:38:09.721Z,27.16
2022-08-07T12:40:02.758Z,27.01
2022-08-07T12:42:04.906Z,27.22
2022-08-07T12:44:17.167Z,27.45
2022-08-07T12:47:01.034Z,27.87
2022-08-07T12:49:44.720Z,27.99
2022-08-07T12:52:18.108Z,28.03
2022-08-07T12:54:38.190Z,27.99
2022-08-07T12:56:51.207Z,28.07
2022-08-07T12:58:59.600Z,27.85
2022-08-07T13:01:04.486Z,27.88
2022-08-07T13:04:04.839Z,27.78
2022-08-07T13:06:21.617Z,27.79
2022-08-07T13:08:52.796Z,27.80
2022-08-07T13:12:03.512Z,27.57
2022-08-07T13:14:03.730Z,27.65
2022-08-07T13:17:02.516Z,27.73
2022-08-07T13:19:34.958Z,27.91
2022-08-07T13:22:02.072Z,27.88
2022-08-07T13:24:29.432Z,27.86
2022-08-07T13:27:20.576Z,27.94
2022-08-07T13:29:58.343Z,27.87
2022-08-07T13:32:15.288Z,27.68
2022-08-07T13:35:08.461Z,27.95
2022-08-07T13:37:26.036Z,27.93
2022-08-07T13:40:33.881Z,28.14
2022-08-07T13:42:02.129Z,27.85
2022-08-07T13:44:10.232Z,27.73
2022-08-07T13:46:25.521Z,28.02
2022-08-07T13:48:34.575Z,28.49
2022-08-07T13:50:45.073Z,28.77
2022-08-07T13:53:02.401Z,29.01
2022-08-07T13:55:25.875Z,29.45
2022-08-07T13:57:37.728Z,29.44
2022-08-07T13:59:45.543Z,29.42
2022-08-07T14:02:03.729Z,29.16
2022-08-07T14:04:12.247Z,28.63
2022-08-07T14:06:14.651Z,28.65
2022-08-07T14:08:16.810Z,28.49
2022-08-07T14:10:24.676Z,28.10
2022-08-07T14:13:05.377Z,27.98
2022-08-07T14:15:10.541Z,27.79
2022-08-07T14:18:12.486Z,27.78
2022-08-07T14:22:34.210Z,27.31
2022-08-07T14:22:40.944Z,27.46
2022-08-07T14:24:41.453Z,27.34
2022-08-07T14:30:02.941Z,27.24
2022-08-07T14:31:56.642Z,27.11
2022-08-07T14:34:00.061Z,27.18
2022-08-07T14:36:02.070Z,27.14
2022-08-07T14:38:05.884Z,27.08
2022-08-07T14:40:16.871Z,27.06
2022-08-07T14:42:32.435Z,27.06
2022-08-07T14:44:36.532Z,27.12
2022-08-07T14:46:51.731Z,27.14
2022-08-07T14:49:17.318Z,27.12
2022-08-07T14:54:30.382Z,27.03
2022-08-07T14:56:14.839Z,26.96
2022-08-07T14:58:34.811Z,27.11
2022-08-07T15:00:36.829Z,27.24
2022-08-07T15:02:39.198Z,27.31
2022-08-07T15:04:53.262Z,27.30
2022-08-07T15:06:55.499Z,27.44
2022-08-07T15:09:03.007Z,27.32
2022-08-07T15:11:53.317Z,27.38
2022-08-07T15:13:56.709Z,27.57
2022-08-07T15:18:41.606Z,27.31
2022-08-07T15:23:20.322Z,27.14
2022-08-07T15:25:36.451Z,27.18
2022-08-07T15:30:22.270Z,26.83
2022-08-07T15:32:38.937Z,26.81
2022-08-07T15:37:10.057Z,27.10
2022-08-07T15:39:12.702Z,27.25
2022-08-07T15:42:42.347Z,27.00
2022-08-07T15:43:57.123Z,27.38
2022-08-07T15:46:04.498Z,27.55
2022-08-07T15:48:32.095Z,27.67
2022-08-07T15:51:07.949Z,27.62
2022-08-07T15:53:05.485Z,27.65
2022-08-07T15:55:11.484Z,27.80
2022-08-07T15:57:28.055Z,27.77
2022-08-07T15:59:44.124Z,27.70
2022-08-07T16:02:02.441Z,27.53
2022-08-07T16:04:14.606Z,27.26
2022-08-07T16:06:24.667Z,27.14
2022-08-07T16:08:30.264Z,26.93
2022-08-07T16:10:37.476Z,26.87
2022-08-07T16:13:17.935Z,26.78
2022-08-07T16:16:42.879Z,26.54
2022-08-07T16:19:04.273Z,26.34
2022-08-07T16:22:05.681Z,26.25
2022-08-07T16:24:34.585Z,26.18
2022-08-07T16:27:05.434Z,26.06
2022-08-07T16:30:11.334Z,25.89
2022-08-07T16:32:33.043Z,25.83
2022-08-07T16:35:51.779Z,25.70
2022-08-07T16:38:07.431Z,25.55
2022-08-07T16:40:33.424Z,25.48
2022-08-07T16:42:45.672Z,25.33
2022-08-07T16:45:15.388Z,25.37
2022-08-07T16:47:56.420Z,25.26
2022-08-07T16:50:52.723Z,25.04
2022-08-07T16:53:48.260Z,25.01
2022-08-07T16:56:53.352Z,24.98
2022-08-07T16:59:24.716Z,24.93
2022-08-07T17:02:52.881Z,24.92
2022-08-07T17:04:58.591Z,24.89
2022-08-07T17:07:28.104Z,24.92
2022-08-07T17:10:05.057Z,24.69
2022-08-07T17:12:47.302Z,24.68
2022-08-07T17:15:15.997Z,24.50
2022-08-07T17:17:48.539Z,24.45
2022-08-07T17:20:02.907Z,24.41
2022-08-07T17:22:19.162Z,24.26
2022-08-07T17:25:15.536Z,24.11
2022-08-07T17:28:06.806Z,23.98
2022-08-07T17:30:15.475Z,23.83
2022-08-07T17:32:52.285Z,23.79
2022-08-07T17:35:50.481Z,23.75
2022-08-07T17:38:08.173Z,23.75
2022-08-07T17:40:08.049Z,23.69
2022-08-07T17:42:21.182Z,23.66
2022-08-07T17:44:33.839Z,23.67
2022-08-07T17:47:03.143Z,23.65
2022-08-07T17:49:24.172Z,23.65
2022-08-07T17:51:49.315Z,23.61
2022-08-07T17:54:39.873Z,23.55
2022-08-07T17:57:18.891Z,23.51
2022-08-07T17:59:44.757Z,23.50
2022-08-07T18:02:06.825Z,23.49
2022-08-07T18:04:35.224Z,23.49
2022-08-07T18:07:20.016Z,23.46
2022-08-07T18:10:04.914Z,23.41
2022-08-07T18:12:30.508Z,23.27
2022-08-07T18:14:47.879Z,23.26
2022-08-07T18:18:39.739Z,23.20
2022-08-07T18:21:06.522Z,23.17
2022-08-07T18:22:54.168Z,23.11
2022-08-07T18:25:19.048Z,23.04
2022-08-07T18:27:58.105Z,22.92
2022-08-07T18:30:31.280Z,22.78
2022-08-07T18:33:16.426Z,22.72
2022-08-07T18:35:25.516Z,22.67
2022-08-07T18:38:57.998Z,22.56
2022-08-07T18:41:17.056Z,22.43
2022-08-07T18:43:49.149Z,22.38
2022-08-07T18:46:22.061Z,22.33
2022-08-07T18:50:32.619Z,22.24
2022-08-07T18:52:34.873Z,22.12
2022-08-07T18:54:30.940Z,22.02
2022-08-07T18:57:23.350Z,21.98
2022-08-07T18:59:47.563Z,21.91
2022-08-07T19:02:34.197Z,21.81
2022-08-07T19:05:14.954Z,21.73
2022-08-07T19:07:34.489Z,21.63
2022-08-07T19:09:57.568Z,21.46
2022-08-07T19:12:17.906Z,21.40
2022-08-07T19:14:51.133Z,21.27
2022-08-07T19:17:07.685Z,21.19
2022-08-07T19:19:32.811Z,21.09
2022-08-07T19:21:58.486Z,21.01
2022-08-07T19:24:12.708Z,20.93
2022-08-07T19:27:16.683Z,20.86
2022-08-07T19:31:04.784Z,20.75
2022-08-07T19:32:08.024Z,20.81
2022-08-07T19:34:05.087Z,20.77
2022-08-07T19:36:13.895Z,20.75
2022-08-07T19:38:17.356Z,20.73
2022-08-07T19:40:31.739Z,20.71
2022-08-07T19:42:45.163Z,20.69
2022-08-07T19:44:47.816Z,20.60
2022-08-07T19:46:55.790Z,20.58
2022-08-07T19:49:06.242Z,20.56
2022-08-07T19:51:20.213Z,20.56
2022-08-07T19:54:32.022Z,20.57
2022-08-07T19:55:57.373Z,20.52
2022-08-07T19:58:13.855Z,20.48
2022-08-07T20:00:28.213Z,20.27
2022-08-07T20:02:51.849Z,20.06
2022-08-07T20:04:56.098Z,20.03
2022-08-07T20:06:58.360Z,20.06
2022-08-07T20:09:02.943Z,20.06
2022-08-07T20:11:15.170Z,20.03
2022-08-07T20:13:53.505Z,19.93
2022-08-07T20:15:57.931Z,19.89
2022-08-07T20:18:03.317Z,19.86
2022-08-07T20:20:07.190Z,19.82
2022-08-07T20:22:12.503Z,19.82
2022-08-07T20:24:31.592Z,19.81
2022-08-07T20:26:45.248Z,19.71
2022-08-07T20:28:48.243Z,19.58
2022-08-07T20:30:50.606Z,19.47
2022-08-07T20:32:54.094Z,19.36
2022-08-07T20:35:01.310Z,19.24
2022-08-07T20:37:09.929Z,19.01
2022-08-07T20:40:01.458Z,18.89
2022-08-07T20:41:42.676Z,18.91
2022-08-07T20:43:47.685Z,18.90
2022-08-07T20:46:28.667Z,18.79
2022-08-07T20:48:29.076Z,18.75
2022-08-07T20:50:32.654Z,18.69
2022-08-07T20:52:51.458Z,18.65
2022-08-07T20:54:55.464Z,18.71
2022-08-07T20:57:04.316Z,18.66
2022-08-07T20:59:06.574Z,18.67
2022-08-07T21:01:29.832Z,18.57
2022-08-07T21:04:18.789Z,18.47
2022-08-07T21:06:26.010Z,18.31
2022-08-07T21:08:46.690Z,18.35
2022-08-07T21:10:49.486Z,18.42
2022-08-07T21:12:51.495Z,18.26
2022-08-07T21:14:57.064Z,18.28
2022-08-07T21:18:00.741Z,18.33
2022-08-07T21:19:32.101Z,18.29
2022-08-07T21:21:57.219Z,18.24
2022-08-07T21:24:24.905Z,18.17
2022-08-07T21:26:30.702Z,18.04
2022-08-07T21:28:49.991Z,18.01
2022-08-07T21:31:08.482Z,18.03
2022-08-07T21:33:24.619Z,18.00
2022-08-07T21:36:04.948Z,17.92
2022-08-07T21:38:14.779Z,17.84
2022-08-07T21:40:36.028Z,17.80
2022-08-07T21:42:55.985Z,17.71
2022-08-07T21:46:09.580Z,17.64
2022-08-07T21:48:34.355Z,17.58
2022-08-07T21:50:54.241Z,17.61
2022-08-07T21:53:08.473Z,17.55
2022-08-07T21:55:27.805Z,17.59
2022-08-07T21:57:55.147Z,17.57
2022-08-07T22:00:23.050Z,17.50
2022-08-07T22:02:39.712Z,17.43
2022-08-07T22:04:53.520Z,17.41
2022-08-07T22:07:06.782Z,17.29
2022-08-07T22:09:12.795Z,17.36
2022-08-07T22:11:18.152Z,17.35
2022-08-07T22:13:24.705Z,17.34
2022-08-07T22:16:38.517Z,17.31
2022-08-07T22:19:29.724Z,17.27
2022-08-07T22:22:20.870Z,17.16
2022-08-07T22:24:37.924Z,17.15
2022-08-07T22:26:59.288Z,17.12
2022-08-07T22:29:47.521Z,17.16
2022-08-07T22:32:08.264Z,17.12
2022-08-07T22:34:36.068Z,17.10
2022-08-07T22:37:05.137Z,17.04
2022-08-07T22:39:30.103Z,16.94
2022-08-07T22:42:19.401Z,16.90
2022-08-07T22:44:22.052Z,16.87
2022-08-07T22:47:02.697Z,16.88
2022-08-07T22:49:16.475Z,16.86
2022-08-07T22:51:37.022Z,16.79
2022-08-07T22:54:09.438Z,16.77
2022-08-07T22:56:23.995Z,16.70
2022-08-07T22:59:10.727Z,16.63
2022-08-07T23:01:59.127Z,16.66
2022-08-07T23:04:28.913Z,16.65
2022-08-07T23:07:40.207Z,16.61
2022-08-07T23:10:38.226Z,16.53
2022-08-07T23:12:48.887Z,16.49
2022-08-07T23:16:04.268Z,16.53
2022-08-07T23:17:47.626Z,16.52
2022-08-07T23:20:52.420Z,16.50
2022-08-07T23:24:06.625Z,16.47
2022-08-07T23:26:12.390Z,16.45
2022-08-07T23:28:32.713Z,16.42
2022-08-07T23:31:06.461Z,16.33
2022-08-07T23:34:35.094Z,16.23
2022-08-07T23:36:29.006Z,16.19
2022-08-07T23:39:21.999Z,16.17
2022-08-07T23:41:47.432Z,16.13
2022-08-07T23:44:03.848Z,16.08
2022-08-07T23:46:42.975Z,16.07
2022-08-07T23:49:18.257Z,16.08
2022-08-07T23:52:59.616Z,16.07
2022-08-07T23:53:54.827Z,16.01
2022-08-07T23:56:01.558Z,15.98
2022-08-07T23:58:26.409Z,15.96
